sensor_id;sensor_type;location;lat;lon;timestamp;pressure;altitude;pressure_sealevel;temperature;humidity
64544;BME280;50936;51.660;5.616;2023-05-23T00:01:41;101502.63;;;15.40;100.00
64544;BME280;50936;51.660;5.616;2023-05-23T00:04:08;101502.22;;;15.34;100.00
64544;BME280;50936;51.660;5.616;2023-05-23T00:06:36;101497.63;;;15.34;100.00
64544;BME280;50936;51.660;5.616;2023-05-23T00:09:04;101497.63;;;15.34;100.00
64544;BME280;50936;51.660;5.616;2023-05-23T00:11:31;101497.63;;;15.34;100.00
64544;BME280;50936;51.660;5.616;2023-05-23T00:13:58;101493.69;;;15.38;100.00
64544;BME280;50936;51.660;5.616;2023-05-23T00:16:26;101499.38;;;15.35;100.00
64544;BME280;50936;51.660;5.616;2023-05-23T00:18:54;101497.63;;;15.34;100.00
64544;BME280;50936;51.660;5.616;2023-05-23T00:21:23;101503.47;;;15.30;100.00
64544;BME280;50936;51.660;5.616;2023-05-23T00:23:50;101507.78;;;15.32;100.00
64544;BME280;50936;51.660;5.616;2023-05-23T00:26:17;101506.53;;;15.36;100.00
64544;BME280;50936;51.660;5.616;2023-05-23T00:28:45;101519.41;;;15.34;100.00
64544;BME280;50936;51.660;5.616;2023-05-23T00:31:12;101517.94;;;15.30;100.00
64544;BME280;50936;51.660;5.616;2023-05-23T00:33:39;101514.22;;;15.31;100.00
64544;BME280;50936;51.660;5.616;2023-05-23T00:36:05;101519.06;;;15.28;100.00
64544;BME280;50936;51.660;5.616;2023-05-23T00:38:33;101519.16;;;15.26;100.00
64544;BME280;50936;51.660;5.616;2023-05-23T00:41:00;101517.19;;;15.28;100.00
64544;BME280;50936;51.660;5.616;2023-05-23T00:43:27;101514.69;;;15.25;100.00
64544;BME280;50936;51.660;5.616;2023-05-23T00:45:55;101520.41;;;15.22;100.00
64544;BME280;50936;51.660;5.616;2023-05-23T00:48:22;101531.28;;;15.22;100.00
64544;BME280;50936;51.660;5.616;2023-05-23T00:50:51;101528.69;;;15.20;100.00
64544;BME280;50936;51.660;5.616;2023-05-23T00:53:20;101532.38;;;15.19;100.00
64544;BME280;50936;51.660;5.616;2023-05-23T00:55:47;101539.56;;;15.20;100.00
64544;BME280;50936;51.660;5.616;2023-05-23T00:58:14;101531.41;;;15.20;100.00
64544;BME280;50936;51.660;5.616;2023-05-23T01:00:43;101529.75;;;15.18;100.00
64544;BME280;50936;51.660;5.616;2023-05-23T01:03:22;101534.84;;;15.11;100.00
64544;BME280;50936;51.660;5.616;2023-05-23T01:05:55;101528.75;;;15.08;100.00
64544;BME280;50936;51.660;5.616;2023-05-23T01:08:22;101528.50;;;15.11;100.00
64544;BME280;50936;51.660;5.616;2023-05-23T01:10:50;101532.22;;;15.10;100.00
64544;BME280;50936;51.660;5.616;2023-05-23T01:13:46;101537.91;;;15.07;100.00
64544;BME280;50936;51.660;5.616;2023-05-23T01:16:32;101530.75;;;15.06;100.00
64544;BME280;50936;51.660;5.616;2023-05-23T01:22:25;101536.63;;;14.99;100.00
64544;BME280;50936;51.660;5.616;2023-05-23T01:25:23;101542.31;;;14.96;100.00
64544;BME280;50936;51.660;5.616;2023-05-23T01:28:15;101545.28;;;14.93;100.00
64544;BME280;50936;51.660;5.616;2023-05-23T01:30:47;101538.84;;;14.94;100.00
64544;BME280;50936;51.660;5.616;2023-05-23T01:33:19;101546.03;;;14.95;100.00
64544;BME280;50936;51.660;5.616;2023-05-23T01:35:48;101537.47;;;14.89;100.00
64544;BME280;50936;51.660;5.616;2023-05-23T01:38:15;101538.47;;;14.88;100.00
64544;BME280;50936;51.660;5.616;2023-05-23T01:40:43;101543.00;;;14.87;100.00
64544;BME280;50936;51.660;5.616;2023-05-23T01:43:10;101542.78;;;14.90;100.00
64544;BME280;50936;51.660;5.616;2023-05-23T01:45:37;101550.94;;;14.90;100.00
64544;BME280;50936;51.660;5.616;2023-05-23T01:48:05;101546.50;;;14.89;100.00
64544;BME280;50936;51.660;5.616;2023-05-23T01:50:33;101549.69;;;14.83;100.00
64544;BME280;50936;51.660;5.616;2023-05-23T01:53:02;101560.03;;;14.78;100.00
64544;BME280;50936;51.660;5.616;2023-05-23T01:55:31;101560.28;;;14.75;100.00
64544;BME280;50936;51.660;5.616;2023-05-23T01:57:58;101560.72;;;14.69;100.00
64544;BME280;50936;51.660;5.616;2023-05-23T02:00:27;101564.44;;;14.68;100.00
64544;BME280;50936;51.660;5.616;2023-05-23T02:02:54;101575.31;;;14.68;100.00
64544;BME280;50936;51.660;5.616;2023-05-23T02:05:21;101566.91;;;14.71;100.00
64544;BME280;50936;51.660;5.616;2023-05-23T02:07:48;101578.78;;;14.70;100.00
64544;BME280;50936;51.660;5.616;2023-05-23T02:10:16;101580.75;;;14.68;100.00
64544;BME280;50936;51.660;5.616;2023-05-23T02:12:43;101578.38;;;14.63;100.00
64544;BME280;50936;51.660;5.616;2023-05-23T02:15:10;101577.75;;;14.59;100.00
64544;BME280;50936;51.660;5.616;2023-05-23T02:17:37;101576.78;;;14.60;100.00
64544;BME280;50936;51.660;5.616;2023-05-23T02:20:05;101565.16;;;14.58;100.00
64544;BME280;50936;51.660;5.616;2023-05-23T02:22:33;101566.88;;;14.59;100.00
64544;BME280;50936;51.660;5.616;2023-05-23T02:25:01;101573.19;;;14.60;100.00
64544;BME280;50936;51.660;5.616;2023-05-23T02:27:28;101573.19;;;14.60;100.00
64544;BME280;50936;51.660;5.616;2023-05-23T02:29:55;101575.00;;;14.59;100.00
64544;BME280;50936;51.660;5.616;2023-05-23T02:32:22;101579.13;;;14.52;100.00
64544;BME280;50936;51.660;5.616;2023-05-23T02:34:49;101578.84;;;14.44;100.00
64544;BME280;50936;51.660;5.616;2023-05-23T02:37:16;101572.88;;;14.39;100.00
64544;BME280;50936;51.660;5.616;2023-05-23T02:39:43;101579.53;;;14.35;100.00
64544;BME280;50936;51.660;5.616;2023-05-23T02:42:10;101570.63;;;14.33;100.00
64544;BME280;50936;51.660;5.616;2023-05-23T02:44:37;101576.94;;;14.33;100.00
64544;BME280;50936;51.660;5.616;2023-05-23T02:47:08;101580.00;;;14.29;100.00
64544;BME280;50936;51.660;5.616;2023-05-23T02:49:36;101574.91;;;14.24;100.00
64544;BME280;50936;51.660;5.616;2023-05-23T02:52:05;101584.16;;;14.21;100.00
64544;BME280;50936;51.660;5.616;2023-05-23T02:54:32;101581.19;;;14.24;100.00
64544;BME280;50936;51.660;5.616;2023-05-23T02:56:59;101578.47;;;14.24;100.00
64544;BME280;50936;51.660;5.616;2023-05-23T02:59:27;101573.50;;;14.18;100.00
64544;BME280;50936;51.660;5.616;2023-05-23T03:01:54;101573.72;;;14.15;100.00
64544;BME280;50936;51.660;5.616;2023-05-23T03:04:21;101582.84;;;14.14;100.00
64544;BME280;50936;51.660;5.616;2023-05-23T03:06:48;101582.09;;;14.12;100.00
64544;BME280;50936;51.660;5.616;2023-05-23T03:09:15;101578.50;;;14.12;100.00
64544;BME280;50936;51.660;5.616;2023-05-23T03:11:43;101577.63;;;14.11;100.00
64544;BME280;50936;51.660;5.616;2023-05-23T03:14:10;101578.75;;;14.09;100.00
64544;BME280;50936;51.660;5.616;2023-05-23T03:16:38;101578.59;;;14.10;100.00
64544;BME280;50936;51.660;5.616;2023-05-23T03:19:05;101579.72;;;14.08;100.00
64544;BME280;50936;51.660;5.616;2023-05-23T03:21:32;101572.41;;;14.08;100.00
64544;BME280;50936;51.660;5.616;2023-05-23T03:24:00;101581.31;;;14.10;100.00
64544;BME280;50936;51.660;5.616;2023-05-23T03:26:28;101589.47;;;14.10;100.00
64544;BME280;50936;51.660;5.616;2023-05-23T03:28:56;101592.72;;;14.15;100.00
64544;BME280;50936;51.660;5.616;2023-05-23T03:31:24;101600.66;;;14.18;100.00
64544;BME280;50936;51.660;5.616;2023-05-23T03:33:51;101596.44;;;14.14;100.00
64544;BME280;50936;51.660;5.616;2023-05-23T03:36:19;101599.81;;;14.18;100.00
64544;BME280;50936;51.660;5.616;2023-05-23T03:38:47;101596.31;;;14.16;100.00
64544;BME280;50936;51.660;5.616;2023-05-23T03:41:14;101597.41;;;14.13;100.00
64544;BME280;50936;51.660;5.616;2023-05-23T03:43:41;101597.19;;;14.16;100.00
64544;BME280;50936;51.660;5.616;2023-05-23T03:46:08;101600.44;;;14.21;100.00
64544;BME280;50936;51.660;5.616;2023-05-23T03:48:35;101602.16;;;14.22;100.00
64544;BME280;50936;51.660;5.616;2023-05-23T03:51:03;101601.97;;;14.25;100.00
64544;BME280;50936;51.660;5.616;2023-05-23T03:53:29;101605.44;;;14.28;100.00
64544;BME280;50936;51.660;5.616;2023-05-23T03:55:56;101596.31;;;14.29;100.00
64544;BME280;50936;51.660;5.616;2023-05-23T03:58:24;101608.03;;;14.29;100.00
64544;BME280;50936;51.660;5.616;2023-05-23T04:00:55;101609.91;;;14.29;100.00
64544;BME280;50936;51.660;5.616;2023-05-23T04:03:22;101616.09;;;14.31;100.00
64544;BME280;50936;51.660;5.616;2023-05-23T04:05:49;101613.13;;;14.34;100.00
64544;BME280;50936;51.660;5.616;2023-05-23T04:08:16;101610.19;;;14.37;100.00
64544;BME280;50936;51.660;5.616;2023-05-23T04:10:49;101620.84;;;14.40;100.00
64544;BME280;50936;51.660;5.616;2023-05-23T04:13:17;101620.59;;;14.43;100.00
64544;BME280;50936;51.660;5.616;2023-05-23T04:15:43;101620.38;;;14.46;100.00
64544;BME280;50936;51.660;5.616;2023-05-23T04:18:11;101619.41;;;14.47;100.00
64544;BME280;50936;51.660;5.616;2023-05-23T04:20:38;101622.78;;;14.51;100.00
64544;BME280;50936;51.660;5.616;2023-05-23T04:23:05;101627.84;;;14.55;100.00
64544;BME280;50936;51.660;5.616;2023-05-23T04:25:35;101623.41;;;14.54;100.00
64544;BME280;50936;51.660;5.616;2023-05-23T04:28:10;101630.56;;;14.55;100.00
64544;BME280;50936;51.660;5.616;2023-05-23T04:30:37;101625.59;;;14.49;100.00
64544;BME280;50936;51.660;5.616;2023-05-23T04:33:05;101634.94;;;14.45;100.00
64544;BME280;50936;51.660;5.616;2023-05-23T04:35:33;101638.13;;;14.39;100.00
64544;BME280;50936;51.660;5.616;2023-05-23T04:38:05;101642.78;;;14.37;100.00
64544;BME280;50936;51.660;5.616;2023-05-23T04:40:33;101642.16;;;14.33;100.00
64544;BME280;50936;51.660;5.616;2023-05-23T04:43:17;101645.22;;;14.29;100.00
64544;BME280;50936;51.660;5.616;2023-05-23T04:45:52;101653.38;;;14.29;100.00
64544;BME280;50936;51.660;5.616;2023-05-23T04:48:38;101656.09;;;14.29;100.00
64544;BME280;50936;51.660;5.616;2023-05-23T04:51:05;101656.28;;;14.25;100.00
64544;BME280;50936;51.660;5.616;2023-05-23T04:53:38;101659.97;;;14.24;100.00
64544;BME280;50936;51.660;5.616;2023-05-23T04:56:08;101665.66;;;14.21;100.00
64544;BME280;50936;51.660;5.616;2023-05-23T04:58:37;101669.53;;;14.17;100.00
64544;BME280;50936;51.660;5.616;2023-05-23T05:01:07;101662.41;;;14.16;100.00
64544;BME280;50936;51.660;5.616;2023-05-23T05:03:35;101676.94;;;14.15;100.00
64544;BME280;50936;51.660;5.616;2023-05-23T05:06:02;101673.25;;;14.16;100.00
64544;BME280;50936;51.660;5.616;2023-05-23T05:08:29;101675.22;;;14.14;100.00
64544;BME280;50936;51.660;5.616;2023-05-23T05:10:57;101680.66;;;14.14;100.00
64544;BME280;50936;51.660;5.616;2023-05-23T05:13:24;101680.88;;;14.11;100.00
64544;BME280;50936;51.660;5.616;2023-05-23T05:15:53;101683.69;;;14.10;100.00
64544;BME280;50936;51.660;5.616;2023-05-23T05:18:22;101679.34;;;14.07;100.00
64544;BME280;50936;51.660;5.616;2023-05-23T05:20:49;101692.69;;;14.10;100.00
64544;BME280;50936;51.660;5.616;2023-05-23T05:23:16;101681.06;;;14.08;100.00
64544;BME280;50936;51.660;5.616;2023-05-23T05:25:43;101689.78;;;14.00;100.00
64544;BME280;50936;51.660;5.616;2023-05-23T05:28:11;101699.00;;;13.98;100.00
64544;BME280;50936;51.660;5.616;2023-05-23T05:30:44;101694.34;;;14.00;100.00
64544;BME280;50936;51.660;5.616;2023-05-23T05:33:12;101689.88;;;13.99;100.00
64544;BME280;50936;51.660;5.616;2023-05-23T05:35:40;101697.81;;;13.89;100.00
64544;BME280;50936;51.660;5.616;2023-05-23T05:38:08;101696.28;;;13.85;100.00
64544;BME280;50936;51.660;5.616;2023-05-23T05:40:37;101706.91;;;13.88;100.00
64544;BME280;50936;51.660;5.616;2023-05-23T05:43:05;101705.41;;;13.84;100.00
64544;BME280;50936;51.660;5.616;2023-05-23T05:45:32;101708.97;;;13.84;100.00
64544;BME280;50936;51.660;5.616;2023-05-23T05:47:59;101713.44;;;13.85;100.00
64544;BME280;50936;51.660;5.616;2023-05-23T05:50:26;101719.31;;;13.79;100.00
64544;BME280;50936;51.660;5.616;2023-05-23T05:52:53;101736.00;;;13.73;100.00
64544;BME280;50936;51.660;5.616;2023-05-23T05:55:21;101730.81;;;13.70;100.00
64544;BME280;50936;51.660;5.616;2023-05-23T05:57:51;101724.81;;;13.65;100.00
64544;BME280;50936;51.660;5.616;2023-05-23T06:00:18;101729.69;;;13.60;100.00
64544;BME280;50936;51.660;5.616;2023-05-23T06:02:50;101734.44;;;13.56;100.00
64544;BME280;50936;51.660;5.616;2023-05-23T06:05:31;101736.97;;;13.59;100.00
64544;BME280;50936;51.660;5.616;2023-05-23T06:07:59;101737.91;;;13.58;100.00
64544;BME280;50936;51.660;5.616;2023-05-23T06:10:26;101743.69;;;13.54;100.00
64544;BME280;50936;51.660;5.616;2023-05-23T06:12:55;101739.22;;;13.53;100.00
64544;BME280;50936;51.660;5.616;2023-05-23T06:15:22;101742.88;;;13.52;100.00
64544;BME280;50936;51.660;5.616;2023-05-23T06:17:49;101746.59;;;13.51;100.00
64544;BME280;50936;51.660;5.616;2023-05-23T06:20:17;101743.44;;;13.57;100.00
64544;BME280;50936;51.660;5.616;2023-05-23T06:22:46;101745.97;;;13.60;100.00
64544;BME280;50936;51.660;5.616;2023-05-23T06:25:12;101754.63;;;13.52;100.00
64544;BME280;50936;51.660;5.616;2023-05-23T06:27:39;101754.94;;;13.47;100.00
64544;BME280;50936;51.660;5.616;2023-05-23T06:30:07;101759.59;;;13.45;100.00
64544;BME280;50936;51.660;5.616;2023-05-23T06:32:34;101759.59;;;13.45;100.00
64544;BME280;50936;51.660;5.616;2023-05-23T06:35:02;101766.56;;;13.50;100.00
64544;BME280;50936;51.660;5.616;2023-05-23T06:37:29;101769.06;;;13.53;100.00
64544;BME280;50936;51.660;5.616;2023-05-23T06:39:56;101776.03;;;13.57;100.00
64544;BME280;50936;51.660;5.616;2023-05-23T06:42:23;101767.88;;;13.57;100.00
64544;BME280;50936;51.660;5.616;2023-05-23T06:45:00;101773.94;;;13.47;100.00
64544;BME280;50936;51.660;5.616;2023-05-23T06:47:27;101776.75;;;13.46;100.00
64544;BME280;50936;51.660;5.616;2023-05-23T06:49:54;101783.25;;;13.43;100.00
64544;BME280;50936;51.660;5.616;2023-05-23T06:52:21;101772.41;;;13.43;100.00
64544;BME280;50936;51.660;5.616;2023-05-23T06:54:50;101780.34;;;13.46;100.00
64544;BME280;50936;51.660;5.616;2023-05-23T06:57:17;101780.03;;;13.51;100.00
64544;BME280;50936;51.660;5.616;2023-05-23T06:59:44;101793.28;;;13.56;100.00
64544;BME280;50936;51.660;5.616;2023-05-23T07:02:12;101790.16;;;13.62;100.00
64544;BME280;50936;51.660;5.616;2023-05-23T07:04:39;101788.78;;;13.69;100.00
64544;BME280;50936;51.660;5.616;2023-05-23T07:07:13;101791.28;;;13.72;100.00
64544;BME280;50936;51.660;5.616;2023-05-23T07:09:42;101797.81;;;13.82;100.00
64544;BME280;50936;51.660;5.616;2023-05-23T07:12:13;101795.59;;;14.02;100.00
64544;BME280;50936;51.660;5.616;2023-05-23T07:14:42;101810.63;;;14.20;100.00
64544;BME280;50936;51.660;5.616;2023-05-23T07:17:10;101809.53;;;14.36;100.00
64544;BME280;50936;51.660;5.616;2023-05-23T07:19:37;101806.81;;;14.49;100.00
64544;BME280;50936;51.660;5.616;2023-05-23T07:22:05;101816.00;;;14.60;100.00
64544;BME280;50936;51.660;5.616;2023-05-23T07:24:34;101816.56;;;14.66;100.00
64544;BME280;50936;51.660;5.616;2023-05-23T07:27:04;101815.25;;;14.71;100.00
64544;BME280;50936;51.660;5.616;2023-05-23T07:29:33;101816.44;;;14.80;100.00
64544;BME280;50936;51.660;5.616;2023-05-23T07:32:00;101817.56;;;15.01;100.00
64544;BME280;50936;51.660;5.616;2023-05-23T07:34:27;101813.66;;;15.18;100.00
64544;BME280;50936;51.660;5.616;2023-05-23T07:36:58;101819.41;;;15.51;97.27
64544;BME280;50936;51.660;5.616;2023-05-23T07:39:29;101822.44;;;15.59;92.70
64544;BME280;50936;51.660;5.616;2023-05-23T07:42:00;101820.81;;;15.81;91.56
64544;BME280;50936;51.660;5.616;2023-05-23T07:44:27;101825.19;;;15.83;92.10
64544;BME280;50936;51.660;5.616;2023-05-23T07:46:54;101832.81;;;15.78;92.54
64544;BME280;50936;51.660;5.616;2023-05-23T07:49:22;101822.38;;;15.72;93.11
64544;BME280;50936;51.660;5.616;2023-05-23T07:51:49;101831.09;;;15.64;93.72
64544;BME280;50936;51.660;5.616;2023-05-23T07:54:17;101830.06;;;15.54;94.31
64544;BME280;50936;51.660;5.616;2023-05-23T07:56:44;101837.28;;;15.42;95.78
64544;BME280;50936;51.660;5.616;2023-05-23T07:59:11;101836.34;;;15.30;97.54
64544;BME280;50936;51.660;5.616;2023-05-23T08:01:40;101843.22;;;15.23;98.11
64544;BME280;50936;51.660;5.616;2023-05-23T08:04:11;101841.72;;;15.19;99.95
64544;BME280;50936;51.660;5.616;2023-05-23T08:06:49;101844.09;;;15.24;98.88
64544;BME280;50936;51.660;5.616;2023-05-23T08:09:50;101847.91;;;15.21;98.65
64544;BME280;50936;51.660;5.616;2023-05-23T08:12:19;101851.59;;;15.20;99.46
64544;BME280;50936;51.660;5.616;2023-05-23T08:14:49;101850.00;;;15.17;100.00
64544;BME280;50936;51.660;5.616;2023-05-23T08:17:22;101850.41;;;15.24;99.64
64544;BME280;50936;51.660;5.616;2023-05-23T08:19:50;101850.38;;;15.37;99.92
64544;BME280;50936;51.660;5.616;2023-05-23T08:22:17;101845.06;;;15.59;99.41
64544;BME280;50936;51.660;5.616;2023-05-23T08:24:44;101851.13;;;15.76;99.73
64544;BME280;50936;51.660;5.616;2023-05-23T08:27:11;101844.06;;;15.97;96.45
64544;BME280;50936;51.660;5.616;2023-05-23T08:29:40;101853.22;;;15.96;95.26
64544;BME280;50936;51.660;5.616;2023-05-23T08:32:07;101851.31;;;15.86;95.64
64544;BME280;50936;51.660;5.616;2023-05-23T08:34:35;101854.16;;;15.71;96.60
64544;BME280;50936;51.660;5.616;2023-05-23T08:37:02;101849.00;;;15.55;97.88
64544;BME280;50936;51.660;5.616;2023-05-23T08:39:29;101862.13;;;15.37;98.98
64544;BME280;50936;51.660;5.616;2023-05-23T08:42:28;101860.84;;;15.30;100.00
64544;BME280;50936;51.660;5.616;2023-05-23T08:44:56;101864.09;;;15.35;100.00
64544;BME280;50936;51.660;5.616;2023-05-23T08:47:23;101866.91;;;15.47;100.00
64544;BME280;50936;51.660;5.616;2023-05-23T08:49:54;101865.06;;;15.71;100.00
64544;BME280;50936;51.660;5.616;2023-05-23T08:52:26;101876.13;;;15.94;100.00
64544;BME280;50936;51.660;5.616;2023-05-23T08:54:59;101878.09;;;15.92;99.73
64544;BME280;50936;51.660;5.616;2023-05-23T08:57:28;101874.44;;;15.80;99.43
64544;BME280;50936;51.660;5.616;2023-05-23T09:00:02;101884.69;;;15.76;98.99
64544;BME280;50936;51.660;5.616;2023-05-23T09:02:37;101878.66;;;15.71;95.60
64544;BME280;50936;51.660;5.616;2023-05-23T09:05:18;101881.66;;;15.68;93.72
64544;BME280;50936;51.660;5.616;2023-05-23T09:07:46;101877.69;;;15.72;92.30
64544;BME280;50936;51.660;5.616;2023-05-23T09:10:18;101884.69;;;15.76;92.40
64544;BME280;50936;51.660;5.616;2023-05-23T09:12:48;101889.09;;;15.90;92.13
64544;BME280;50936;51.660;5.616;2023-05-23T09:15:16;101887.28;;;16.02;90.43
64544;BME280;50936;51.660;5.616;2023-05-23T09:17:44;101886.19;;;16.29;90.35
64544;BME280;50936;51.660;5.616;2023-05-23T09:20:13;101895.16;;;17.11;86.55
64544;BME280;50936;51.660;5.616;2023-05-23T09:22:48;101891.31;;;17.48;78.19
64544;BME280;50936;51.660;5.616;2023-05-23T09:25:16;101902.50;;;17.34;78.58
64544;BME280;50936;51.660;5.616;2023-05-23T09:27:44;101894.03;;;17.14;79.79
64544;BME280;50936;51.660;5.616;2023-05-23T09:30:14;101897.50;;;16.93;80.62
64544;BME280;50936;51.660;5.616;2023-05-23T09:32:58;101907.16;;;16.86;80.31
64544;BME280;50936;51.660;5.616;2023-05-23T09:35:31;101908.59;;;16.79;79.34
64544;BME280;50936;51.660;5.616;2023-05-23T09:37:58;101899.25;;;16.83;77.78
64544;BME280;50936;51.660;5.616;2023-05-23T09:40:30;101907.63;;;16.80;77.97
64544;BME280;50936;51.660;5.616;2023-05-23T09:43:03;101901.44;;;16.78;79.81
64544;BME280;50936;51.660;5.616;2023-05-23T09:45:32;101900.84;;;16.86;78.91
64544;BME280;50936;51.660;5.616;2023-05-23T09:48:00;101911.66;;;16.99;78.09
64544;BME280;50936;51.660;5.616;2023-05-23T09:50:30;101903.13;;;17.26;77.49
64544;BME280;50936;51.660;5.616;2023-05-23T09:53:00;101896.88;;;17.58;74.35
64544;BME280;50936;51.660;5.616;2023-05-23T09:55:27;101901.22;;;17.60;74.16
64544;BME280;50936;51.660;5.616;2023-05-23T09:57:57;101909.88;;;17.65;74.30
64544;BME280;50936;51.660;5.616;2023-05-23T10:00:25;101903.97;;;17.60;71.71
64544;BME280;50936;51.660;5.616;2023-05-23T10:05:43;101914.16;;;17.36;71.94
64544;BME280;50936;51.660;5.616;2023-05-23T10:08:26;101907.22;;;17.31;71.70
64544;BME280;50936;51.660;5.616;2023-05-23T10:13:44;101904.78;;;17.72;70.02
64544;BME280;50936;51.660;5.616;2023-05-23T10:16:18;101901.91;;;17.96;70.05
64544;BME280;50936;51.660;5.616;2023-05-23T10:18:55;101901.59;;;18.11;67.16
64544;BME280;50936;51.660;5.616;2023-05-23T10:21:32;101898.00;;;18.10;68.92
64544;BME280;50936;51.660;5.616;2023-05-23T10:24:04;101915.78;;;18.37;68.11
64544;BME280;50936;51.660;5.616;2023-05-23T10:26:33;101909.88;;;18.53;63.62
64544;BME280;50936;51.660;5.616;2023-05-23T10:29:00;101914.59;;;18.51;64.80
64544;BME280;50936;51.660;5.616;2023-05-23T10:31:28;101913.19;;;18.77;66.10
64544;BME280;50936;51.660;5.616;2023-05-23T10:34:31;101917.09;;;18.96;64.46
64544;BME280;50936;51.660;5.616;2023-05-23T10:37:06;101920.94;;;19.14;62.05
64544;BME280;50936;51.660;5.616;2023-05-23T10:43:26;101912.78;;;19.03;61.87
64544;BME280;50936;51.660;5.616;2023-05-23T10:45:56;101920.66;;;19.17;59.39
64544;BME280;50936;51.660;5.616;2023-05-23T10:51:07;101910.56;;;19.89;55.36
64544;BME280;50936;51.660;5.616;2023-05-23T10:53:44;101906.97;;;19.98;55.31
64544;BME280;50936;51.660;5.616;2023-05-23T10:56:19;101913.13;;;19.81;56.85
64544;BME280;50936;51.660;5.616;2023-05-23T10:58:52;101905.34;;;19.86;57.21
64544;BME280;50936;51.660;5.616;2023-05-23T11:01:21;101909.84;;;20.07;56.72
64544;BME280;50936;51.660;5.616;2023-05-23T11:03:51;101910.00;;;20.15;57.17
64544;BME280;50936;51.660;5.616;2023-05-23T11:09:05;101918.81;;;20.28;55.81
64544;BME280;50936;51.660;5.616;2023-05-23T11:11:54;101910.00;;;20.44;55.74
64544;BME280;50936;51.660;5.616;2023-05-23T11:17:17;101906.06;;;20.86;52.29
64544;BME280;50936;51.660;5.616;2023-05-23T11:20:02;101904.34;;;20.85;50.89
64544;BME280;50936;51.660;5.616;2023-05-23T11:22:35;101916.56;;;21.00;49.83
64544;BME280;50936;51.660;5.616;2023-05-23T11:25:09;101914.47;;;21.22;49.62
64544;BME280;50936;51.660;5.616;2023-05-23T11:27:39;101921.63;;;21.42;47.23
64544;BME280;50936;51.660;5.616;2023-05-23T11:30:10;101926.19;;;21.61;45.08
64544;BME280;50936;51.660;5.616;2023-05-23T11:32:50;101920.66;;;21.71;44.43
64544;BME280;50936;51.660;5.616;2023-05-23T11:35:19;101913.66;;;21.77;46.28
64544;BME280;50936;51.660;5.616;2023-05-23T11:37:47;101922.94;;;21.94;47.14
64544;BME280;50936;51.660;5.616;2023-05-23T11:43:03;101925.22;;;21.80;47.88
64544;BME280;50936;51.660;5.616;2023-05-23T11:45:33;101913.94;;;22.19;45.11
64544;BME280;50936;51.660;5.616;2023-05-23T11:48:09;101922.78;;;22.41;44.27
64544;BME280;50936;51.660;5.616;2023-05-23T11:50:46;101920.00;;;22.59;43.74
64544;BME280;50936;51.660;5.616;2023-05-23T11:53:19;101929.28;;;22.40;44.26
64544;BME280;50936;51.660;5.616;2023-05-23T11:55:55;101931.72;;;22.43;44.41
64544;BME280;50936;51.660;5.616;2023-05-23T11:58:28;101929.81;;;22.61;43.52
64544;BME280;50936;51.660;5.616;2023-05-23T12:01:05;101922.34;;;22.72;44.08
64544;BME280;50936;51.660;5.616;2023-05-23T12:03:34;101922.78;;;22.85;42.88
64544;BME280;50936;51.660;5.616;2023-05-23T12:06:13;101917.31;;;22.93;41.80
64544;BME280;50936;51.660;5.616;2023-05-23T12:08:41;101933.53;;;22.52;42.13
64544;BME280;50936;51.660;5.616;2023-05-23T12:11:09;101922.72;;;22.05;43.65
64544;BME280;50936;51.660;5.616;2023-05-23T12:13:40;101937.44;;;21.68;45.26
64544;BME280;50936;51.660;5.616;2023-05-23T12:16:07;101939.97;;;21.79;45.74
64544;BME280;50936;51.660;5.616;2023-05-23T12:18:36;101941.56;;;22.00;44.45
64544;BME280;50936;51.660;5.616;2023-05-23T12:21:05;101946.22;;;21.99;43.57
64544;BME280;50936;51.660;5.616;2023-05-23T12:23:34;101935.94;;;22.19;42.57
64544;BME280;50936;51.660;5.616;2023-05-23T12:26:05;101934.84;;;22.12;43.11
64544;BME280;50936;51.660;5.616;2023-05-23T12:28:35;101949.38;;;22.04;44.76
64544;BME280;50936;51.660;5.616;2023-05-23T12:31:23;101951.50;;;21.92;42.26
64544;BME280;50936;51.660;5.616;2023-05-23T12:33:52;101948.25;;;21.97;44.12
64544;BME280;50936;51.660;5.616;2023-05-23T12:36:26;101952.38;;;22.11;43.10
64544;BME280;50936;51.660;5.616;2023-05-23T12:39:04;101946.94;;;22.19;43.70
64544;BME280;50936;51.660;5.616;2023-05-23T12:41:32;101954.09;;;22.12;41.84
64544;BME280;50936;51.660;5.616;2023-05-23T12:43:59;101963.50;;;21.91;43.29
64544;BME280;50936;51.660;5.616;2023-05-23T12:46:27;101957.72;;;21.67;43.35
64544;BME280;50936;51.660;5.616;2023-05-23T12:48:54;101954.59;;;21.42;43.71
64544;BME280;50936;51.660;5.616;2023-05-23T12:51:21;101965.25;;;21.18;43.83
64544;BME280;50936;51.660;5.616;2023-05-23T12:53:49;101954.50;;;21.24;44.17
64544;BME280;50936;51.660;5.616;2023-05-23T12:56:16;101958.88;;;21.64;44.76
64544;BME280;50936;51.660;5.616;2023-05-23T12:58:43;101953.41;;;22.10;42.95
64544;BME280;50936;51.660;5.616;2023-05-23T13:01:10;101963.91;;;21.97;41.72
64544;BME280;50936;51.660;5.616;2023-05-23T13:03:37;101967.38;;;21.71;42.25
64544;BME280;50936;51.660;5.616;2023-05-23T13:06:04;101946.03;;;21.55;42.17
64544;BME280;50936;51.660;5.616;2023-05-23T13:08:32;101955.84;;;21.20;42.82
64544;BME280;50936;51.660;5.616;2023-05-23T13:10:59;101950.41;;;20.91;44.18
64544;BME280;50936;51.660;5.616;2023-05-23T13:13:26;101956.25;;;20.68;44.71
64544;BME280;50936;51.660;5.616;2023-05-23T13:15:53;101953.63;;;20.76;44.44
64544;BME280;50936;51.660;5.616;2023-05-23T13:18:20;101953.88;;;20.93;43.73
64544;BME280;50936;51.660;5.616;2023-05-23T13:20:47;101959.94;;;20.96;42.72